Terminal Aerodrome Forecast
Issued by NWS Grand Forks, ND

Home | Current Version | Previous Version | Graphics & Text | Print | Product List | Glossary On
Versions: 1 2 3 4 5 6 7 8 9 10 11 12 13 14 15 16 17 18 19 20 21
886
FTUS43 KFGF 061720
TAFFAR
TAF
KFAR 061720Z 0618/0718 29031G39KT 1/2SM -SN BLSN OVC010
     FM062000 29033G44KT 1/2SM -SN BLSN OVC015
      TEMPO 0620/0624 1/4SM -SN BLSN OVC007
     FM070000 29028G36KT 4SM BLSN OVC020
     FM070800 29020KT 4SM BLSN OVC020
     FM071200 29016G25KT P6SM OVC015
     FM071700 29016G26KT P6SM OVC025=

USA.gov is the U.S. government's official web portal to all federal, state and local government web resources and services.